Time;durP1;ratioP1;P1;durP2;ratioP2;P2;SDS_P1;SDS_P2;PMS_P1;PMS_P2;Temp;Humidity;BMP_temperature;BMP_pressure;BME280_temperature;BME280_humidity;BME280_pressure;Samples;Min_cycle;Max_cycle;Signal;HPM_P1;HPM_P2
2024/01/06 00:00:21;;;;;;;4.30;3.37;;;;;;;12.74;100.00;149242.38;5094447;28;20267;-61
2024/01/06 00:02:48;;;;;;;3.13;2.93;;;;;;;12.64;100.00;149217.09;5093938;28;20188;-62
2024/01/06 00:05:15;;;;;;;4.40;2.93;;;;;;;12.67;100.00;149224.66;5094010;28;20242;-62
2024/01/06 00:07:42;;;;;;;3.53;3.23;;;;;;;12.68;100.00;149227.22;5093575;28;20707;-62
2024/01/06 00:10:09;;;;;;;3.20;3.00;;;;;;;12.71;100.00;149234.78;5093838;28;20180;-61
2024/01/06 00:12:38;;;;;;;2.70;2.60;;;;;;;12.65;100.00;149219.59;5094217;28;20200;-61
2024/01/06 00:15:06;;;;;;;4.93;3.40;;;;;;;12.56;100.00;149196.78;5093854;28;20191;-61
2024/01/06 00:17:33;;;;;;;8.67;4.10;;;;;;;12.56;100.00;149196.78;5093747;28;20192;-63
2024/01/06 00:20:02;;;;;;;10.00;4.30;;;;;;;12.31;100.00;149133.50;5093649;28;20184;-61
2024/01/06 00:22:29;;;;;;;8.97;3.77;;;;;;;12.09;100.00;149077.84;5094061;28;20523;-62
2024/01/06 00:24:56;;;;;;;15.87;5.43;;;;;;;11.91;100.00;149033.53;5093905;28;20268;-61
2024/01/06 00:27:23;;;;;;;4.33;4.03;;;;;;;11.77;100.00;148999.38;5093767;28;20554;-61
2024/01/06 00:29:52;;;;;;;4.80;4.50;;;;;;;11.94;100.00;149041.13;5093697;28;20208;-61
2024/01/06 00:32:19;;;;;;;10.33;4.60;;;;;;;12.07;100.00;149074.03;5093662;28;20195;-61
2024/01/06 00:34:47;;;;;;;13.30;5.17;;;;;;;12.05;100.00;149068.94;5093352;28;20187;-61
2024/01/06 00:37:14;;;;;;;11.97;4.60;;;;;;;11.94;100.00;149041.13;5093488;28;20563;-61
2024/01/06 00:39:41;;;;;;;9.03;4.63;;;;;;;11.77;100.00;148999.38;5093335;28;20188;-62
2024/01/06 00:42:08;;;;;;;6.10;5.60;;;;;;;11.53;100.00;148937.34;5093267;28;20188;-62
2024/01/06 00:44:37;;;;;;;6.07;5.53;;;;;;;11.61;100.00;148957.56;5093419;28;20184;-62
2024/01/06 00:47:05;;;;;;;4.93;4.63;;;;;;;11.69;100.00;148979.06;5093213;28;20188;-62
2024/01/06 00:49:32;;;;;;;5.73;5.13;;;;;;;11.86;100.00;149020.88;5093287;28;20662;-62
2024/01/06 00:51:59;;;;;;;5.43;4.93;;;;;;;11.86;100.00;149022.16;5092999;28;20279;-61
2024/01/06 00:54:26;;;;;;;5.57;5.17;;;;;;;11.85;100.00;149018.34;5092818;28;20241;-63
2024/01/06 00:56:54;;;;;;;7.50;5.97;;;;;;;11.94;100.00;149041.13;5093110;28;20305;-62
2024/01/06 00:59:21;;;;;;;7.57;5.33;;;;;;;11.94;100.00;149041.13;5093130;28;20727;-63
2024/01/06 01:01:48;;;;;;;5.87;5.03;;;;;;;11.94;100.00;149041.13;5093304;28;20184;-61
2024/01/06 01:04:16;;;;;;;5.87;4.87;;;;;;;12.14;100.00;149091.72;5092991;28;20226;-61
2024/01/06 01:06:43;;;;;;;13.43;4.87;;;;;;;12.20;100.00;149105.66;5092814;28;20180;-61
2024/01/06 01:09:13;;;;;;;5.33;4.10;;;;;;;12.22;100.00;149110.75;5092670;28;20200;-61
2024/01/06 01:11:40;;;;;;;4.90;4.43;;;;;;;12.23;100.00;149113.25;5092995;28;20657;-61
2024/01/06 01:14:07;;;;;;;4.73;4.40;;;;;;;12.36;100.00;149146.16;5093133;28;20183;-61
2024/01/06 01:16:34;;;;;;;4.27;3.87;;;;;;;12.30;100.00;149132.25;5093133;28;20563;-61
2024/01/06 01:19:02;;;;;;;4.60;4.30;;;;;;;12.53;100.00;149189.19;5091825;28;20184;-61
2024/01/06 01:21:30;;;;;;;4.40;3.90;;;;;;;12.49;100.00;149177.81;5092795;28;20587;-61
2024/01/06 01:23:57;;;;;;;4.60;4.40;;;;;;;12.41;100.00;149158.81;5092925;28;20605;-61
2024/01/06 01:26:25;;;;;;;10.80;5.10;;;;;;;12.43;100.00;149163.91;5092972;28;20204;-61
2024/01/06 01:28:52;;;;;;;4.13;3.93;;;;;;;12.44;100.00;149166.41;5092519;28;20287;-61
2024/01/06 01:31:19;;;;;;;4.30;4.10;;;;;;;12.45;100.00;149167.69;5092455;28;20241;-62
2024/01/06 01:33:46;;;;;;;3.50;3.20;;;;;;;12.46;100.00;149170.22;5092812;28;20204;-62
2024/01/06 01:36:14;;;;;;;4.67;3.13;;;;;;;12.48;100.00;149175.25;5092233;28;20191;-61
2024/01/06 01:38:42;;;;;;;6.13;4.43;;;;;;;12.50;100.00;149180.34;5092741;28;20257;-62
2024/01/06 01:41:09;;;;;;;3.50;3.30;;;;;;;12.52;100.00;149185.44;5092145;28;20264;-61
2024/01/06 01:43:37;;;;;;;3.60;3.20;;;;;;;12.57;100.00;149198.06;5092675;28;20184;-62
2024/01/06 01:46:05;;;;;;;2.77;2.57;;;;;;;12.64;100.00;149217.09;5092391;28;20275;-62
2024/01/06 01:48:34;;;;;;;2.67;2.57;;;;;;;12.59;100.00;149203.16;5092071;28;20245;-61
2024/01/06 01:51:01;;;;;;;6.40;2.43;;;;;;;12.65;100.00;149218.31;5092086;28;20660;-61
2024/01/06 01:53:28;;;;;;;2.80;2.60;;;;;;;12.69;100.00;149228.44;5092040;28;20235;-62
2024/01/06 01:55:57;;;;;;;2.77;2.57;;;;;;;12.63;100.00;149213.25;5092328;28;20642;-61
2024/01/06 01:58:25;;;;;;;3.30;3.10;;;;;;;12.55;100.00;149193.03;5092161;28;20187;-62
2024/01/06 02:00:52;;;;;;;3.87;3.30;;;;;;;12.50;100.00;149180.34;5091854;28;20187;-62
2024/01/06 02:03:19;;;;;;;3.60;2.80;;;;;;;12.45;100.00;149167.69;5092191;28;20184;-61
2024/01/06 02:05:46;;;;;;;2.80;2.60;;;;;;;12.38;100.00;149151.25;5092246;28;20183;-61
2024/01/06 02:08:13;;;;;;;2.77;2.57;;;;;;;12.42;100.00;149161.38;5092106;28;20188;-61
2024/01/06 02:10:41;;;;;;;2.40;2.30;;;;;;;12.44;100.00;149165.13;5091920;28;20207;-62
2024/01/06 02:13:13;;;;;;;2.73;2.63;;;;;;;12.48;100.00;149175.25;5091865;28;20188;-61
2024/01/06 02:15:40;;;;;;;2.30;2.20;;;;;;;12.46;100.00;149170.22;5091899;28;20233;-61
2024/01/06 02:18:08;;;;;;;2.90;2.40;;;;;;;12.40;100.00;149156.28;5091770;28;20226;-61
2024/01/06 02:20:36;;;;;;;2.90;2.80;;;;;;;12.42;100.00;149160.09;5091759;28;20184;-61
2024/01/06 02:23:04;;;;;;;2.77;2.60;;;;;;;12.40;100.00;149155.00;5091728;28;20199;-61
2024/01/06 02:25:31;;;;;;;3.47;2.43;;;;;;;12.27;100.00;149123.38;5092093;28;20192;-62
2024/01/06 02:27:59;;;;;;;4.13;2.50;;;;;;;12.23;100.00;149114.50;5091894;28;20184;-61
2024/01/06 02:30:26;;;;;;;3.33;2.20;;;;;;;12.34;100.00;149141.13;5094576;28;20289;-61
2024/01/06 02:32:53;;;;;;;2.87;2.57;;;;;;;12.34;100.00;149142.41;5096346;28;20631;-62
2024/01/06 02:35:21;;;;;;;2.40;2.20;;;;;;;12.47;100.00;149174.03;5096006;28;20620;-62
2024/01/06 02:37:48;;;;;;;2.60;2.40;;;;;;;12.45;100.00;149167.69;5096043;28;20184;-61
2024/01/06 02:40:16;;;;;;;3.20;3.00;;;;;;;12.43;100.00;149162.63;5095728;28;20225;-62
2024/01/06 02:42:43;;;;;;;2.93;2.20;;;;;;;12.32;100.00;149137.31;5095881;28;20245;-61
2024/01/06 02:45:11;;;;;;;2.53;2.43;;;;;;;12.39;100.00;149152.50;5095444;28;20198;-63
2024/01/06 02:47:38;;;;;;;2.80;2.60;;;;;;;12.21;100.00;149109.47;5095697;28;20234;-62
2024/01/06 02:50:06;;;;;;;3.37;2.60;;;;;;;12.19;100.00;149104.41;5095353;28;20203;-62
2024/01/06 02:52:33;;;;;;;2.93;2.70;;;;;;;12.19;100.00;149104.41;5095361;28;20187;-61
2024/01/06 02:55:00;;;;;;;2.40;2.30;;;;;;;12.19;100.00;149103.13;5095151;28;20224;-61
2024/01/06 02:57:29;;;;;;;4.83;2.43;;;;;;;12.14;100.00;149090.44;5095280;28;20278;-61
2024/01/06 02:59:56;;;;;;;2.23;2.13;;;;;;;12.23;100.00;149114.50;5095331;28;20188;-61
2024/01/06 03:02:23;;;;;;;2.20;2.00;;;;;;;12.04;100.00;149065.16;5095240;28;20240;-62
2024/01/06 03:04:50;;;;;;;2.00;1.90;;;;;;;12.23;100.00;149113.25;5095419;28;20188;-60
2024/01/06 03:07:17;;;;;;;2.47;1.80;;;;;;;12.12;100.00;149086.69;5095322;28;20188;-62
2024/01/06 03:09:44;;;;;;;2.40;2.07;;;;;;;12.32;100.00;149136.03;5094925;28;20265;-61
2024/01/06 03:12:11;;;;;;;2.80;2.60;;;;;;;12.17;100.00;149099.34;5094836;28;20188;-61
2024/01/06 03:14:40;;;;;;;2.50;2.30;;;;;;;12.40;100.00;149155.00;5095363;28;20623;-61
2024/01/06 03:17:10;;;;;;;4.03;2.20;;;;;;;12.32;100.00;149136.03;5094883;28;20188;-61
2024/01/06 03:19:37;;;;;;;3.40;2.17;;;;;;;12.07;100.00;149072.75;5095183;28;20297;-63
2024/01/06 03:22:05;;;;;;;2.20;2.10;;;;;;;12.16;100.00;149096.81;5095338;28;20622;-61
2024/01/06 03:24:32;;;;;;;2.40;2.30;;;;;;;12.09;100.00;149079.09;5094847;28;20180;-61
2024/01/06 03:26:59;;;;;;;2.03;1.93;;;;;;;12.23;100.00;149113.25;5095285;28;20268;-61
2024/01/06 03:29:26;;;;;;;2.17;1.77;;;;;;;12.20;100.00;149105.66;5094976;28;20204;-61
2024/01/06 03:31:55;;;;;;;6.30;2.20;;;;;;;12.19;100.00;149104.41;5095170;28;20253;-61
2024/01/06 03:34:22;;;;;;;1.90;1.80;;;;;;;12.23;100.00;149114.50;5094548;28;20184;-62
2024/01/06 03:36:49;;;;;;;2.30;2.07;;;;;;;12.30;100.00;149131.00;5094609;28;20191;-59
2024/01/06 03:39:16;;;;;;;2.13;1.97;;;;;;;12.31;100.00;149134.75;5094828;28;20203;-61
2024/01/06 03:41:43;;;;;;;4.47;2.30;;;;;;;12.19;100.00;149103.13;5094028;28;20606;-62
2024/01/06 03:44:11;;;;;;;4.03;2.67;;;;;;;12.32;100.00;149136.03;5094466;28;20180;-61
2024/01/06 03:46:39;;;;;;;2.80;2.60;;;;;;;12.12;100.00;149086.69;5094350;28;20184;-62
2024/01/06 03:49:07;;;;;;;2.63;2.43;;;;;;;11.96;100.00;149046.19;5094141;28;20241;-62
2024/01/06 03:51:34;;;;;;;3.87;2.50;;;;;;;11.72;100.00;148986.69;5094364;28;20245;-63
2024/01/06 03:54:01;;;;;;;2.53;2.43;;;;;;;11.76;100.00;148996.81;5093983;28;20232;-60
2024/01/06 03:56:31;;;;;;;4.30;2.40;;;;;;;11.81;100.00;149008.22;5094511;28;20188;-62
2024/01/06 03:58:58;;;;;;;2.17;1.90;;;;;;;11.79;100.00;149003.19;5094518;28;20176;-62
2024/01/06 04:01:25;;;;;;;2.40;2.30;;;;;;;11.78;100.00;149001.91;5094138;28;20275;-61
2024/01/06 04:03:52;;;;;;;5.73;2.53;;;;;;;11.63;100.00;148962.59;5094173;28;20184;-61
2024/01/06 04:06:21;;;;;;;2.80;2.60;;;;;;;11.63;100.00;148962.59;5093908;28;20189;-62
2024/01/06 04:08:48;;;;;;;2.60;2.40;;;;;;;11.72;100.00;148985.44;5093888;28;20246;-62
2024/01/06 04:11:15;;;;;;;2.43;2.30;;;;;;;11.60;100.00;148956.28;5093937;28;20261;-62
2024/01/06 04:13:42;;;;;;;2.53;2.33;;;;;;;11.57;100.00;148948.72;5093904;28;20191;-60
2024/01/06 04:16:09;;;;;;;2.50;2.40;;;;;;;11.61;100.00;148958.84;5094176;28;20229;-61
2024/01/06 04:18:36;;;;;;;4.80;2.43;;;;;;;11.61;100.00;148957.56;5094335;28;20535;-61
2024/01/06 04:21:04;;;;;;;2.40;2.30;;;;;;;11.73;100.00;148987.97;5094055;28;20237;-61
2024/01/06 04:23:33;;;;;;;2.87;2.67;;;;;;;11.58;100.00;148950.00;5093700;28;20582;-61
2024/01/06 04:26:01;;;;;;;2.97;2.70;;;;;;;11.66;100.00;148970.22;5093915;28;20253;-61
2024/01/06 04:28:28;;;;;;;4.67;2.57;;;;;;;11.74;100.00;148990.50;5093797;28;20196;-61
2024/01/06 04:30:55;;;;;;;4.03;2.57;;;;;;;11.76;100.00;148995.56;5093718;28;20212;-62
2024/01/06 04:33:22;;;;;;;2.70;2.60;;;;;;;11.77;100.00;148999.38;5093825;28;20203;-62
2024/01/06 04:35:50;;;;;;;2.60;2.47;;;;;;;11.67;100.00;148972.78;5093796;28;20184;-61
2024/01/06 04:38:17;;;;;;;2.83;2.63;;;;;;;11.80;100.00;149005.66;5093983;28;20554;-62
2024/01/06 04:40:45;;;;;;;2.63;2.40;;;;;;;11.80;100.00;149006.94;5093455;28;20233;-62
2024/01/06 04:43:13;;;;;;;2.50;2.40;;;;;;;11.70;100.00;148980.34;5093422;28;20184;-61
2024/01/06 04:45:40;;;;;;;3.90;2.80;;;;;;;11.70;100.00;148980.34;5093497;28;20215;-61
2024/01/06 04:48:08;;;;;;;3.30;3.03;;;;;;;11.74;100.00;148991.78;5093644;28;20608;-61
2024/01/06 04:50:35;;;;;;;3.90;3.60;;;;;;;11.78;100.00;149000.63;5093412;28;20726;-62
2024/01/06 04:53:02;;;;;;;3.00;2.80;;;;;;;11.73;100.00;148989.25;5092977;28;20264;-62
2024/01/06 04:55:29;;;;;;;3.23;3.00;;;;;;;11.76;100.00;148995.56;5093770;28;20605;-61
2024/01/06 04:57:57;;;;;;;4.43;2.47;;;;;;;11.65;100.00;148967.69;5093203;28;20226;-61
2024/01/06 05:00:25;;;;;;;5.33;2.97;;;;;;;11.66;100.00;148970.22;5093070;28;20198;-62
2024/01/06 05:02:52;;;;;;;3.13;3.00;;;;;;;11.79;100.00;149004.44;5093088;28;20184;-63
2024/01/06 05:05:19;;;;;;;3.00;2.80;;;;;;;11.77;100.00;148998.09;5093395;28;20535;-61
2024/01/06 05:07:46;;;;;;;4.83;2.90;;;;;;;11.69;100.00;148979.06;5092972;28;20245;-61
2024/01/06 05:10:13;;;;;;;3.40;3.17;;;;;;;11.75;100.00;148993.06;5092987;28;20211;-62
2024/01/06 05:12:40;;;;;;;4.23;2.77;;;;;;;11.85;100.00;149018.34;5093062;28;20245;-63
2024/01/06 05:15:10;;;;;;;2.70;2.57;;;;;;;11.87;100.00;149024.69;5092717;28;20188;-62
2024/01/06 05:17:37;;;;;;;3.23;3.03;;;;;;;11.84;100.00;149017.06;5092679;28;20583;-61
2024/01/06 05:20:06;;;;;;;4.80;3.17;;;;;;;11.76;100.00;148995.56;5092584;28;20188;-62
2024/01/06 05:22:33;;;;;;;4.20;3.20;;;;;;;11.77;100.00;148999.38;5092555;28;20223;-62
2024/01/06 05:25:00;;;;;;;4.23;2.97;;;;;;;11.69;100.00;148977.81;5092564;28;20303;-61
2024/01/06 05:27:27;;;;;;;4.83;3.60;;;;;;;11.79;100.00;149003.19;5092332;28;20188;-61
2024/01/06 05:29:54;;;;;;;3.50;3.30;;;;;;;11.76;100.00;148995.56;5092627;28;20237;-61
2024/01/06 05:32:23;;;;;;;3.00;2.90;;;;;;;11.75;100.00;148993.06;5092443;28;20233;-61
2024/01/06 05:34:50;;;;;;;8.63;3.60;;;;;;;11.71;100.00;148982.88;5092204;28;20192;-62
2024/01/06 05:37:17;;;;;;;4.53;3.40;;;;;;;11.54;100.00;148939.88;5092322;28;20188;-61
2024/01/06 05:39:44;;;;;;;5.03;3.50;;;;;;;11.62;100.00;148960.09;5092662;28;20616;-62
2024/01/06 05:42:12;;;;;;;3.77;3.53;;;;;;;11.52;100.00;148934.78;5092124;28;20188;-62
2024/01/06 05:44:39;;;;;;;6.63;3.80;;;;;;;11.24;100.00;148866.53;5092392;28;20288;-61
2024/01/06 05:47:08;;;;;;;3.70;3.53;;;;;;;11.36;100.00;148896.84;5092442;28;20657;-62
2024/01/06 05:49:36;;;;;;;5.43;4.27;;;;;;;11.34;100.00;148891.78;5092068;28;20211;-62
2024/01/06 05:52:03;;;;;;;5.13;4.73;;;;;;;11.31;100.00;148884.22;5092330;28;20241;-61
2024/01/06 05:54:31;;;;;;;6.87;5.43;;;;;;;11.27;100.00;148874.09;5091868;28;20232;-62
2024/01/06 05:56:59;;;;;;;5.60;5.13;;;;;;;11.20;100.00;148856.34;5092359;28;20252;-63
2024/01/06 05:59:26;;;;;;;7.87;7.17;;;;;;;11.19;100.00;148853.84;5092681;28;20577;-62
2024/01/06 06:01:53;;;;;;;7.70;7.20;;;;;;;11.18;100.00;148850.03;5092285;28;20253;-61
2024/01/06 06:04:20;;;;;;;5.30;4.80;;;;;;;11.27;100.00;148872.81;5092026;28;20184;-62
2024/01/06 06:06:49;;;;;;;5.30;4.87;;;;;;;11.27;100.00;148872.81;5092615;28;20536;-62
2024/01/06 06:09:16;;;;;;;5.90;5.40;;;;;;;11.43;100.00;148914.56;5092279;28;20636;-61
2024/01/06 06:11:43;;;;;;;8.73;4.93;;;;;;;11.45;100.00;148918.38;5092235;28;20231;-63
2024/01/06 06:14:11;;;;;;;4.73;4.53;;;;;;;11.42;100.00;148912.00;5091852;28;20267;-63
2024/01/06 06:16:38;;;;;;;7.50;4.30;;;;;;;11.70;100.00;148980.34;5092309;28;20241;-62
2024/01/06 06:19:05;;;;;;;4.03;3.63;;;;;;;11.95;100.00;149043.66;5091701;28;20191;-62
2024/01/06 06:21:32;;;;;;;7.70;4.20;;;;;;;12.05;100.00;149068.94;5091995;28;20189;-62
2024/01/06 06:24:01;;;;;;;4.10;3.80;;;;;;;12.14;100.00;149091.72;5091754;28;20187;-62
2024/01/06 06:26:29;;;;;;;4.70;3.50;;;;;;;12.19;100.00;149104.41;5092313;28;20203;-62
2024/01/06 06:28:56;;;;;;;3.67;3.47;;;;;;;12.20;100.00;149106.94;5091802;28;20202;-61
2024/01/06 06:31:23;;;;;;;7.43;3.57;;;;;;;12.19;100.00;149104.41;5091687;28;20204;-61
2024/01/06 06:33:51;;;;;;;4.43;4.03;;;;;;;12.17;100.00;149099.34;5091559;28;20184;-62
2024/01/06 06:36:18;;;;;;;4.37;3.57;;;;;;;12.29;100.00;149128.44;5091474;28;20191;-62
2024/01/06 06:38:45;;;;;;;6.30;3.93;;;;;;;12.57;100.00;149199.31;5091836;28;20203;-62
2024/01/06 06:41:13;;;;;;;8.13;3.30;;;;;;;12.82;100.00;149261.34;5091969;28;20579;-63
2024/01/06 06:43:41;;;;;;;4.83;3.60;;;;;;;13.04;100.00;149317.09;5091492;28;20195;-62
2024/01/06 06:46:07;;;;;;;4.90;4.13;;;;;;;12.94;100.00;149291.78;5092088;28;20201;-62
2024/01/06 06:48:36;;;;;;;4.93;4.60;;;;;;;12.97;100.00;149298.09;5091573;28;20189;-62
2024/01/06 06:51:03;;;;;;;4.70;4.23;;;;;;;13.07;100.00;149323.44;5092020;28;20204;-62
2024/01/06 06:53:30;;;;;;;5.90;5.40;;;;;;;12.98;100.00;149301.91;5091512;28;20236;-62
2024/01/06 06:55:57;;;;;;;5.50;5.10;;;;;;;13.35;100.00;149394.44;5091367;28;20184;-61
2024/01/06 06:58:26;;;;;;;9.53;4.83;;;;;;;13.42;100.00;149412.13;5091827;28;20184;-62
2024/01/06 07:00:54;;;;;;;8.57;4.90;;;;;;;13.73;100.00;149489.44;5091488;28;20185;-60
2024/01/06 07:03:21;;;;;;;5.90;5.30;;;;;;;13.95;100.00;149543.94;5091445;28;20192;-62
2024/01/06 07:05:48;;;;;;;10.53;4.90;;;;;;;14.06;100.00;149571.81;5091549;28;20197;-63
2024/01/06 07:08:15;;;;;;;14.23;5.07;;;;;;;14.09;100.00;149580.69;5091626;28;20184;-62
2024/01/06 07:10:43;;;;;;;12.20;5.00;;;;;;;14.14;100.00;149593.34;5091129;28;20208;-62
2024/01/06 07:13:10;;;;;;;10.77;5.33;;;;;;;14.42;100.00;149661.88;5091313;28;20238;-62
2024/01/06 07:15:38;;;;;;;8.67;4.83;;;;;;;14.93;100.00;149791.22;5091454;28;20625;-62
2024/01/06 07:18:06;;;;;;;12.40;5.03;;;;;;;15.40;100.00;149909.16;5094591;28;20245;-62
2024/01/06 07:20:33;;;;;;;7.53;3.93;;;;;;;16.45;100.00;150173.28;5095731;28;20188;-63
2024/01/06 07:23:02;;;;;;;9.73;4.70;;;;;;;16.91;100.00;150287.59;5094820;28;20190;-62
2024/01/06 07:25:30;;;;;;;6.63;3.50;;;;;;;16.69;100.00;150233.00;5095235;28;20200;-62
2024/01/06 07:27:57;;;;;;;4.97;4.13;;;;;;;16.32;100.00;150138.97;5095019;28;20645;-61
2024/01/06 07:30:24;;;;;;;5.07;4.27;;;;;;;16.04;100.00;150069.13;5095062;28;20617;-62
2024/01/06 07:32:53;;;;;;;4.20;3.90;;;;;;;15.86;100.00;150024.75;5095054;28;20188;-62
2024/01/06 07:35:20;;;;;;;11.13;4.50;;;;;;;15.69;100.00;149980.31;5094613;28;20192;-61
2024/01/06 07:37:47;;;;;;;14.43;4.97;;;;;;;15.69;100.00;149981.59;5094703;28;20199;-62
2024/01/06 07:40:16;;;;;;;5.50;4.00;;;;;;;15.36;100.00;149899.03;5094594;28;20249;-62
2024/01/06 07:42:43;;;;;;;8.13;4.70;;;;;;;15.09;100.00;149831.81;5094389;28;20192;-62
2024/01/06 07:45:11;;;;;;;7.93;3.93;;;;;;;15.25;100.00;149869.84;5094258;28;20241;-62
2024/01/06 07:47:39;;;;;;;10.17;4.43;;;;;;;15.32;100.00;149887.66;5094342;28;20192;-62
2024/01/06 07:50:09;;;;;;;11.80;5.53;;;;;;;15.15;100.00;149845.75;5094753;28;20562;-61
2024/01/06 07:52:36;;;;;;;18.63;5.17;;;;;;;14.99;100.00;149806.44;5094381;28;20275;-61
2024/01/06 07:55:03;;;;;;;32.93;6.70;;;;;;;15.03;100.00;149816.56;5094073;28;20284;-61
2024/01/06 07:57:30;;;;;;;20.00;6.30;;;;;;;14.79;100.00;149755.72;5094537;28;20279;-62
2024/01/06 07:59:57;;;;;;;18.37;6.10;;;;;;;14.64;100.00;149718.91;5094523;28;20218;-61
2024/01/06 08:02:24;;;;;;;14.47;6.33;;;;;;;14.57;100.00;149701.16;5094152;28;20214;-62
2024/01/06 08:04:52;;;;;;;18.07;6.93;;;;;;;14.55;100.00;149694.84;5094041;28;20278;-61
2024/01/06 08:07:20;;;;;;;13.70;6.17;;;;;;;14.76;100.00;149748.13;5094240;28;20184;-63
2024/01/06 08:09:47;;;;;;;20.50;6.37;;;;;;;14.76;100.00;149748.13;5093803;28;20184;-62
2024/01/06 08:12:15;;;;;;;20.33;6.30;;;;;;;14.69;100.00;149729.06;5093775;28;20703;-62
2024/01/06 08:14:43;;;;;;;8.20;6.20;;;;;;;14.70;100.00;149731.59;5093901;28;20199;-63
2024/01/06 08:17:10;;;;;;;9.30;6.40;;;;;;;15.07;100.00;149826.72;5094179;28;20184;-62
2024/01/06 08:19:37;;;;;;;22.30;7.13;;;;;;;15.42;100.00;149913.00;5093742;28;20191;-63
2024/01/06 08:22:04;;;;;;;19.40;6.73;;;;;;;16.30;100.00;150135.16;5093956;28;20627;-62
2024/01/06 08:24:33;;;;;;;11.07;7.27;;;;;;;17.51;100.00;150437.53;5093696;28;20184;-63
2024/01/06 08:27:00;;;;;;;20.77;6.43;;;;;;;17.71;100.00;150489.69;5093806;28;20578;-62
2024/01/06 08:29:27;;;;;;;17.87;8.90;;;;;;;18.06;100.00;150576.13;5093586;28;20196;-62
2024/01/06 08:31:54;;;;;;;13.70;8.20;;;;;;;17.83;100.00;150517.63;5093763;28;20208;-62
2024/01/06 08:34:21;;;;;;;9.73;6.23;;;;;;;17.73;100.00;150494.78;5093496;28;20656;-63
2024/01/06 08:36:48;;;;;;;13.13;7.50;;;;;;;17.93;100.00;150543.06;5093265;28;20241;-63
2024/01/06 08:39:15;;;;;;;15.63;7.60;;;;;;;17.90;100.00;150535.47;5093641;28;20609;-63
2024/01/06 08:41:45;;;;;;;16.70;6.30;;;;;;;17.95;100.00;150548.16;5093572;28;20647;-61
2024/01/06 08:44:12;;;;;;;13.10;5.53;;;;;;;18.75;100.00;150750.41;5093566;28;20184;-62
2024/01/06 08:46:39;;;;;;;13.40;5.50;;;;;;;19.56;100.00;150954.03;5093433;28;20180;-63
2024/01/06 08:49:06;;;;;;;6.43;4.28;;;;;;;19.78;100.00;151010.00;5093170;28;20227;-62
2024/01/06 08:51:33;;;;;;;5.15;4.72;;;;;;;19.22;100.00;150868.72;5093412;28;20204;-62
2024/01/06 08:54:03;;;;;;;10.43;4.85;;;;;;;18.99;100.00;150810.16;5093272;28;20547;-61
2024/01/06 08:56:30;;;;;;;8.00;4.77;;;;;;;18.46;100.00;150676.59;5093325;28;20189;-62
2024/01/06 08:58:59;;;;;;;11.60;5.53;;;;;;;18.44;100.00;150671.47;5093034;28;20195;-64
2024/01/06 09:01:26;;;;;;;13.33;5.83;;;;;;;18.41;100.00;150665.16;5092951;28;20188;-62
2024/01/06 09:03:53;;;;;;;18.67;6.47;;;;;;;18.51;100.00;150689.28;5093242;28;20627;-62
2024/01/06 09:06:22;;;;;;;16.13;5.47;;;;;;;18.69;100.00;150736.41;5092794;28;20261;-63
2024/01/06 09:08:49;;;;;;;11.73;6.30;;;;;;;19.81;100.00;151017.66;5093440;28;20681;-63
2024/01/06 09:11:16;;;;;;;10.75;5.65;;;;;;;20.88;100.00;151286.34;5093041;28;20555;-63
2024/01/06 09:13:43;;;;;;;10.02;4.75;;;;;;;22.18;100.00;151615.28;5093503;28;20195;-62
2024/01/06 09:16:12;;;;;;;9.88;5.55;;;;;;;22.58;94.13;151714.72;5093177;28;20539;-62
2024/01/06 09:18:39;;;;;;;5.05;3.35;;;;;;;21.66;96.11;151482.66;5092545;28;20188;-63
2024/01/06 09:21:07;;;;;;;6.40;4.15;;;;;;;20.80;100.00;151265.97;5092684;28;20176;-63
2024/01/06 09:23:34;;;;;;;9.75;5.30;;;;;;;20.36;100.00;151156.47;5093192;28;20184;-62
2024/01/06 09:26:01;;;;;;;7.55;5.40;;;;;;;20.06;100.00;151080.03;5092589;28;20200;-63
2024/01/06 09:28:28;;;;;;;13.57;5.30;;;;;;;21.33;100.00;151399.81;5092914;28;20682;-62
2024/01/06 09:30:55;;;;;;;21.40;5.50;;;;;;;21.93;100.00;151550.28;5092434;28;20188;-62
2024/01/06 09:33:24;;;;;;;4.82;4.53;;;;;;;23.01;92.18;151823.19;5092893;28;20191;-63
2024/01/06 09:35:51;;;;;;;14.45;4.63;;;;;;;22.97;89.42;151814.28;5092740;28;20630;-62
2024/01/06 09:38:19;;;;;;;4.75;4.13;;;;;;;21.78;94.72;151513.22;5092259;28;20235;-62
2024/01/06 09:40:46;;;;;;;6.07;3.75;;;;;;;21.13;100.00;151348.88;5091723;28;20192;-62
2024/01/06 09:43:13;;;;;;;15.68;4.40;;;;;;;20.85;100.00;151278.72;5092591;28;20184;-62
2024/01/06 09:45:40;;;;;;;11.60;3.17;;;;;;;20.92;100.00;151297.81;5092194;28;20192;-62
2024/01/06 09:48:13;;;;;;;7.15;3.00;;;;;;;21.15;100.00;151353.94;5092447;28;20621;-62
2024/01/06 09:50:44;;;;;;;6.07;3.08;;;;;;;21.16;100.00;151357.78;5093147;28;20223;-63
2024/01/06 09:53:12;;;;;;;4.03;3.70;;;;;;;21.54;100.00;151452.06;5091897;28;20307;-63
2024/01/06 09:55:40;;;;;;;4.55;2.78;;;;;;;21.59;99.63;151464.81;5092324;28;20192;-61
2024/01/06 09:58:07;;;;;;;4.88;2.05;;;;;;;21.28;100.00;151387.06;5092224;28;20187;-62
2024/01/06 10:00:34;;;;;;;4.82;2.30;;;;;;;20.28;100.00;151136.06;5092405;28;20233;-62
2024/01/06 10:03:01;;;;;;;6.78;2.20;;;;;;;20.32;100.00;151146.31;5092913;28;20221;-61
2024/01/06 10:05:28;;;;;;;6.15;2.67;;;;;;;21.15;100.00;151355.22;5092105;28;20191;-62
2024/01/06 10:07:57;;;;;;;6.72;2.13;;;;;;;20.99;100.00;151314.41;5091998;28;20245;-62
2024/01/06 10:10:25;;;;;;;3.67;2.20;;;;;;;22.06;96.77;151584.69;5093096;28;20191;-64
2024/01/06 10:12:55;;;;;;;4.13;2.53;;;;;;;22.11;94.63;151596.13;5092085;28;20298;-63
2024/01/06 10:15:23;;;;;;;2.85;2.40;;;;;;;22.33;93.08;151653.53;5092223;28;20710;-63
2024/01/06 10:17:50;;;;;;;5.03;2.70;;;;;;;22.68;91.23;151740.25;5092181;28;20183;-63
2024/01/06 10:20:19;;;;;;;2.42;2.22;;;;;;;22.96;86.98;151811.72;5092266;28;20184;-63
2024/01/06 10:22:47;;;;;;;2.85;2.35;;;;;;;22.18;90.54;151615.28;5091881;28;20176;-63
2024/01/06 10:25:16;;;;;;;3.30;2.20;;;;;;;22.05;91.98;151580.84;5092022;28;20638;-63
2024/01/06 10:27:43;;;;;;;4.53;2.38;;;;;;;22.36;92.00;151658.66;5091977;28;20699;-63
2024/01/06 10:30:12;;;;;;;14.57;3.10;;;;;;;22.59;91.02;151717.28;5092261;28;20195;-63
2024/01/06 10:32:40;;;;;;;3.15;2.40;;;;;;;21.92;92.17;151547.66;5091889;28;20230;-63
2024/01/06 10:35:08;;;;;;;5.35;2.78;;;;;;;21.23;97.05;151374.31;5092001;28;20562;-63
2024/01/06 10:37:40;;;;;;;2.10;2.00;;;;;;;20.17;100.00;151108.03;5091706;28;20192;-59
2024/01/06 10:40:12;;;;;;;3.42;3.13;;;;;;;19.59;100.00;150961.66;5091633;28;20189;-64
2024/01/06 10:42:41;;;;;;;4.00;3.33;;;;;;;19.35;100.00;150900.53;5092056;28;20618;-63
2024/01/06 10:45:10;;;;;;;4.18;2.78;;;;;;;19.26;100.00;150877.63;5091513;28;20787;-63
2024/01/06 10:47:38;;;;;;;2.65;2.38;;;;;;;18.92;100.00;150792.38;5091850;28;20184;-63
2024/01/06 10:50:06;;;;;;;3.50;2.27;;;;;;;18.90;100.00;150788.53;5091991;28;20180;-62
2024/01/06 10:52:34;;;;;;;4.17;2.27;;;;;;;18.54;100.00;150696.97;5095689;28;20215;-63
2024/01/06 10:55:03;;;;;;;2.50;2.40;;;;;;;18.34;100.00;150646.03;5095029;28;20756;-63
2024/01/06 10:57:31;;;;;;;7.63;2.87;;;;;;;18.22;100.00;150616.78;5095214;28;20188;-63
2024/01/06 11:00:01;;;;;;;4.73;2.43;;;;;;;18.09;100.00;150583.75;5095270;28;20188;-62
2024/01/06 11:02:28;;;;;;;2.47;2.27;;;;;;;17.81;100.00;150513.84;5095690;28;20220;-65
2024/01/06 11:04:55;;;;;;;3.93;2.50;;;;;;;17.63;100.00;150468.06;5095185;28;20241;-63
2024/01/06 11:07:24;;;;;;;4.90;2.70;;;;;;;17.57;100.00;150454.03;5095119;28;20184;-63
2024/01/06 11:09:58;;;;;;;5.27;2.47;;;;;;;17.71;100.00;150489.69;5095729;28;20257;-63
2024/01/06 11:12:26;;;;;;;3.43;3.17;;;;;;;17.86;100.00;150525.28;5095136;28;20270;-62
2024/01/06 11:14:54;;;;;;;5.63;2.47;;;;;;;17.96;100.00;150550.69;5095342;28;20653;-64
2024/01/06 11:17:55;;;;;;;4.47;3.73;;;;;;;17.80;100.00;150511.28;5095675;28;20610;-62